Time,TemperatureF,DewpointF,PressureIn,WindDirection,WindDirectionDegrees,WindSpeedMPH,WindSpeedGustMPH,Humidity,HourlyPrecipIn,Conditions,Clouds,dailyrainin,SoftwareType,DateUTC
2015-05-05 00:08:00,67.5,47.1,30.08,East,90,0.0,-999.0,48,-99.99,,,0.00,Acu-Link.com,2015-05-05 04:08:00,
2015-05-05 00:23:00,66.9,47.6,30.08,East,90,2.2,-999.0,50,-99.99,,,0.00,Acu-Link.com,2015-05-05 04:23:00,
2015-05-05 00:39:00,66.9,48.2,30.08,SSW,202,1.1,-999.0,51,-99.99,,,0.00,Acu-Link.com,2015-05-05 04:39:00,
2015-05-05 00:54:00,66.9,48.2,30.08,East,90,2.2,-999.0,51,-99.99,,,0.00,Acu-Link.com,2015-05-05 04:54:00,
2015-05-05 01:10:00,66.6,48.4,30.08,SE,135,0.0,-999.0,52,-99.99,,,0.00,Acu-Link.com,2015-05-05 05:10:00,
2015-05-05 01:25:00,66.2,48.6,30.08,ESE,112,0.0,-999.0,53,-99.99,,,0.00,Acu-Link.com,2015-05-05 05:25:00,
2015-05-05 01:40:00,65.5,48.9,30.08,SE,135,1.7,-999.0,55,-99.99,,,0.00,Acu-Link.com,2015-05-05 05:40:00,
2015-05-05 01:55:00,65.7,49.1,30.08,SSE,157,0.0,-999.0,55,-99.99,,,0.00,Acu-Link.com,2015-05-05 05:55:00,
2015-05-05 02:10:00,65.5,48.9,30.07,SE,135,1.7,-999.0,55,-99.99,,,0.00,Acu-Link.com,2015-05-05 06:10:00,
2015-05-05 02:26:00,65.3,49.2,30.07,South,180,0.0,-999.0,56,-99.99,,,0.00,Acu-Link.com,2015-05-05 06:26:00,
2015-05-05 02:41:00,65.1,49.5,30.08,SSW,202,4.7,-999.0,57,-99.99,,,0.00,Acu-Link.com,2015-05-05 06:41:00,
2015-05-05 02:56:00,63.9,49.3,30.07,South,180,0.0,-999.0,59,-99.99,,,0.00,Acu-Link.com,2015-05-05 06:56:00,
2015-05-05 03:11:00,63.0,49.3,30.07,SSE,157,0.0,-999.0,61,-99.99,,,0.00,Acu-Link.com,2015-05-05 07:11:00,
2015-05-05 03:27:00,62.4,49.2,30.08,SSE,157,0.0,-999.0,62,-99.99,,,0.00,Acu-Link.com,2015-05-05 07:27:00,
2015-05-05 03:42:00,61.9,49.2,30.07,SE,135,0.0,-999.0,63,-99.99,,,0.00,Acu-Link.com,2015-05-05 07:42:00,
2015-05-05 03:57:00,61.5,49.6,30.08,SE,135,0.0,-999.0,65,-99.99,,,0.00,Acu-Link.com,2015-05-05 07:57:00,
2015-05-05 04:12:00,61.0,49.6,30.08,SE,135,0.0,-999.0,66,-99.99,,,0.00,Acu-Link.com,2015-05-05 08:12:00,
2015-05-05 04:27:00,60.4,49.4,30.08,SSE,157,0.0,-999.0,67,-99.99,,,0.00,Acu-Link.com,2015-05-05 08:27:00,
2015-05-05 04:43:00,60.4,49.4,30.08,South,180,0.0,-999.0,67,-99.99,,,0.00,Acu-Link.com,2015-05-05 08:43:00,
2015-05-05 04:58:00,60.3,49.3,30.08,SSE,157,0.0,-999.0,67,-99.99,,,0.00,Acu-Link.com,2015-05-05 08:58:00,
2015-05-05 05:13:00,60.3,49.7,30.08,South,180,0.0,-999.0,68,-99.99,,,0.00,Acu-Link.com,2015-05-05 09:13:00,
2015-05-05 05:28:00,60.4,49.8,30.09,South,180,0.0,-999.0,68,-99.99,,,0.00,Acu-Link.com,2015-05-05 09:28:00,
2015-05-05 05:43:00,60.6,50.0,30.09,ESE,112,2.2,-999.0,68,-99.99,,,0.00,Acu-Link.com,2015-05-05 09:43:00,
2015-05-05 05:58:00,61.2,50.2,30.09,SE,135,1.7,-999.0,67,-99.99,,,0.00,Acu-Link.com,2015-05-05 09:58:00,
2015-05-05 06:13:00,62.1,50.6,30.10,SSW,202,0.0,-999.0,66,-99.99,,,0.00,Acu-Link.com,2015-05-05 10:13:00,
2015-05-05 06:28:00,62.2,50.3,30.11,WNW,292,2.2,-999.0,65,-99.99,,,0.00,Acu-Link.com,2015-05-05 10:28:00,
2015-05-05 06:43:00,62.8,50.4,30.11,South,180,0.0,-999.0,64,-99.99,,,0.00,Acu-Link.com,2015-05-05 10:43:00,
2015-05-05 06:58:00,63.3,50.9,30.12,SSW,202,0.0,-999.0,64,-99.99,,,0.00,Acu-Link.com,2015-05-05 10:58:00,
2015-05-05 07:14:00,63.9,51.5,30.13,SSW,202,0.0,-999.0,64,-99.99,,,0.00,Acu-Link.com,2015-05-05 11:14:00,
2015-05-05 07:29:00,64.4,51.5,30.13,NNW,337,0.0,-999.0,63,-99.99,,,0.00,Acu-Link.com,2015-05-05 11:29:00,
2015-05-05 07:44:00,65.1,52.6,30.13,SW,225,0.0,-999.0,64,-99.99,,,0.00,Acu-Link.com,2015-05-05 11:44:00,
2015-05-05 07:59:00,66.0,52.6,30.13,West,270,0.0,-999.0,62,-99.99,,,0.00,Acu-Link.com,2015-05-05 11:59:00,
2015-05-05 08:15:00,66.7,52.8,30.14,SW,225,0.0,-999.0,61,-99.99,,,0.00,Acu-Link.com,2015-05-05 12:15:00,
2015-05-05 08:30:00,68.2,52.4,30.15,WNW,292,0.0,-999.0,57,-99.99,,,0.00,Acu-Link.com,2015-05-05 12:30:00,
2015-05-05 08:45:00,69.6,52.7,30.15,NW,315,0.0,-999.0,55,-99.99,,,0.00,Acu-Link.com,2015-05-05 12:45:00,
2015-05-05 09:00:00,70.7,53.2,30.16,WNW,292,0.0,-999.0,54,-99.99,,,0.00,Acu-Link.com,2015-05-05 13:00:00,
2015-05-05 09:15:00,71.6,53.6,30.16,WNW,292,0.0,-999.0,53,-99.99,,,0.00,Acu-Link.com,2015-05-05 13:15:00,
2015-05-05 09:31:00,71.8,54.2,30.16,West,270,0.0,-999.0,54,-99.99,,,0.00,Acu-Link.com,2015-05-05 13:31:00,
2015-05-05 09:46:00,72.1,54.5,30.15,West,270,0.0,-999.0,54,-99.99,,,0.00,Acu-Link.com,2015-05-05 13:46:00,
2015-05-05 10:02:00,72.1,55.0,30.16,West,270,0.0,-999.0,55,-99.99,,,0.00,Acu-Link.com,2015-05-05 14:02:00,
2015-05-05 10:17:00,72.1,55.5,30.16,NNW,337,1.7,-999.0,56,-99.99,,,0.00,Acu-Link.com,2015-05-05 14:17:00,
2015-05-05 10:36:00,73.0,56.4,30.16,WNW,292,1.7,-999.0,56,-99.99,,,0.00,Acu-Link.com,2015-05-05 14:36:00,
2015-05-05 10:51:00,73.9,56.2,30.16,NNE,22,0.0,-999.0,54,-99.99,,,0.00,Acu-Link.com,2015-05-05 14:51:00,
2015-05-05 11:07:00,75.9,56.5,30.16,NW,315,0.0,-999.0,51,-99.99,,,0.00,Acu-Link.com,2015-05-05 15:07:00,
2015-05-05 11:22:00,75.6,56.2,30.15,West,270,1.7,-999.0,51,-99.99,,,0.00,Acu-Link.com,2015-05-05 15:22:00,
2015-05-05 11:37:00,75.9,55.9,30.16,WNW,292,1.1,-999.0,50,-99.99,,,0.00,Acu-Link.com,2015-05-05 15:37:00,
2015-05-05 11:52:00,76.3,56.8,30.16,NW,315,0.0,-999.0,51,-99.99,,,0.00,Acu-Link.com,2015-05-05 15:52:00,
2015-05-05 12:08:00,76.6,56.6,30.16,SSW,202,0.0,-999.0,50,-99.99,,,0.00,Acu-Link.com,2015-05-05 16:08:00,
2015-05-05 12:23:00,77.4,56.7,30.15,NNE,22,0.0,-999.0,49,-99.99,,,0.00,Acu-Link.com,2015-05-05 16:23:00,
2015-05-05 12:47:00,77.7,56.4,30.15,West,270,0.0,-999.0,48,-99.99,,,0.00,Acu-Link.com,2015-05-05 16:47:00,
2015-05-05 13:02:00,79.3,56.7,30.15,ESE,112,0.0,-999.0,46,-99.99,,,0.00,Acu-Link.com,2015-05-05 17:02:00,
2015-05-05 13:17:00,80.4,57.7,30.14,North,0,1.1,-999.0,46,-99.99,,,0.00,Acu-Link.com,2015-05-05 17:17:00,
2015-05-05 13:32:00,83.5,55.9,30.13,NW,315,0.0,-999.0,39,-99.99,,,0.00,Acu-Link.com,2015-05-05 17:32:00,
2015-05-05 13:48:00,83.5,57.3,30.13,West,270,2.7,-999.0,41,-99.99,,,0.00,Acu-Link.com,2015-05-05 17:48:00,
2015-05-05 14:03:00,80.4,54.5,30.13,WNW,292,1.1,-999.0,41,-99.99,,,0.00,Acu-Link.com,2015-05-05 18:03:00,
2015-05-05 14:18:00,84.6,56.2,30.12,North,0,1.7,-999.0,38,-99.99,,,0.00,Acu-Link.com,2015-05-05 18:18:00,
2015-05-05 14:33:00,80.6,55.4,30.12,West,270,0.0,-999.0,42,-99.99,,,0.00,Acu-Link.com,2015-05-05 18:33:00,
2015-05-05 14:48:00,84.2,55.8,30.12,West,270,0.0,-999.0,38,-99.99,,,0.00,Acu-Link.com,2015-05-05 18:48:00,
2015-05-05 15:04:00,82.6,55.8,30.12,SSE,157,0.0,-999.0,40,-99.99,,,0.00,Acu-Link.com,2015-05-05 19:04:00,
2015-05-05 15:19:00,80.6,55.4,30.11,East,90,3.2,-999.0,42,-99.99,,,0.00,Acu-Link.com,2015-05-05 19:19:00,
2015-05-05 15:34:00,77.7,56.4,30.11,South,180,3.7,-999.0,48,-99.99,,,0.00,Acu-Link.com,2015-05-05 19:34:00,
2015-05-05 15:50:00,76.8,56.7,30.10,South,180,2.7,-999.0,50,-99.99,,,0.00,Acu-Link.com,2015-05-05 19:50:00,
2015-05-05 16:05:00,77.5,56.8,30.10,ESE,112,0.0,-999.0,49,-99.99,,,0.00,Acu-Link.com,2015-05-05 20:05:00,
2015-05-05 16:20:00,77.5,57.9,30.09,ENE,67,1.1,-999.0,51,-99.99,,,0.00,Acu-Link.com,2015-05-05 20:20:00,
2015-05-05 16:40:00,76.6,57.6,30.08,ESE,112,0.0,-999.0,52,-99.99,,,0.00,Acu-Link.com,2015-05-05 20:40:00,
2015-05-05 16:55:00,77.2,58.7,30.08,SSE,157,0.0,-999.0,53,-99.99,,,0.00,Acu-Link.com,2015-05-05 20:55:00,
2015-05-05 17:10:00,77.2,57.1,30.08,ESE,112,1.1,-999.0,50,-99.99,,,0.00,Acu-Link.com,2015-05-05 21:10:00,
2015-05-05 17:47:00,76.8,55.6,30.08,WNW,292,0.0,-999.0,48,-99.99,,,0.00,Acu-Link.com,2015-05-05 21:47:00,
2015-05-05 18:02:00,76.8,55.0,30.07,NE,45,0.0,-999.0,47,-99.99,,,0.00,Acu-Link.com,2015-05-05 22:02:00,
2015-05-05 18:17:00,76.6,54.3,30.08,NE,45,0.0,-999.0,46,-99.99,,,0.00,Acu-Link.com,2015-05-05 22:17:00,
2015-05-05 18:32:00,76.3,54.6,30.08,South,180,3.7,-999.0,47,-99.99,,,0.00,Acu-Link.com,2015-05-05 22:32:00,
2015-05-05 18:48:00,76.1,55.5,30.07,NE,45,0.0,-999.0,49,-99.99,,,0.00,Acu-Link.com,2015-05-05 22:48:00,
2015-05-05 19:03:00,76.1,55.5,30.08,SSE,157,0.0,-999.0,49,-99.99,,,0.00,Acu-Link.com,2015-05-05 23:03:00,
2015-05-05 19:18:00,74.8,54.9,30.08,East,90,0.0,-999.0,50,-99.99,,,0.00,Acu-Link.com,2015-05-05 23:18:00,
2015-05-05 19:34:00,74.1,54.3,30.08,SSE,157,0.0,-999.0,50,-99.99,,,0.00,Acu-Link.com,2015-05-05 23:34:00,
2015-05-05 19:49:00,72.3,53.7,30.08,South,180,0.0,-999.0,52,-99.99,,,0.00,Acu-Link.com,2015-05-05 23:49:00,
2015-05-05 20:04:00,70.9,53.4,30.09,South,180,0.0,-999.0,54,-99.99,,,0.00,Acu-Link.com,2015-05-06 00:04:00,
2015-05-05 20:19:00,70.5,53.0,30.09,ESE,112,0.0,-999.0,54,-99.99,,,0.00,Acu-Link.com,2015-05-06 00:19:00,
2015-05-05 20:34:00,70.3,53.4,30.09,ESE,112,0.0,-999.0,55,-99.99,,,0.00,Acu-Link.com,2015-05-06 00:34:00,
2015-05-05 20:52:00,70.2,53.3,30.10,North,0,2.2,-999.0,55,-99.99,,,0.00,Acu-Link.com,2015-05-06 00:52:00,